sensor_id;sensor_type;location;lat;lon;timestamp;pressure;altitude;pressure_sealevel;temperature;humidity
29935;BME280;19905;53.370;-6.314;2023-08-20T00:01:56;100939.47;;;16.40;100.00
29935;BME280;19905;53.370;-6.314;2023-08-20T00:04:26;100939.38;;;16.32;100.00
29935;BME280;19905;53.370;-6.314;2023-08-20T00:06:55;100942.88;;;16.33;100.00
29935;BME280;19905;53.370;-6.314;2023-08-20T00:09:25;100945.81;;;16.30;100.00
29935;BME280;19905;53.370;-6.314;2023-08-20T00:11:55;100949.91;;;16.24;100.00
29935;BME280;19905;53.370;-6.314;2023-08-20T00:14:51;100962.97;;;16.27;100.00
29935;BME280;19905;53.370;-6.314;2023-08-20T00:17:22;100964.09;;;16.24;100.00
29935;BME280;19905;53.370;-6.314;2023-08-20T00:19:54;100967.19;;;16.20;100.00
29935;BME280;19905;53.370;-6.314;2023-08-20T00:22:26;100990.19;;;16.21;100.00
29935;BME280;19905;53.370;-6.314;2023-08-20T00:24:55;100967.19;;;16.20;100.00
29935;BME280;19905;53.370;-6.314;2023-08-20T00:27:30;100973.97;;;16.14;100.00
29935;BME280;19905;53.370;-6.314;2023-08-20T00:30:00;100983.19;;;16.20;100.00
29935;BME280;19905;53.370;-6.314;2023-08-20T00:32:32;100972.53;;;16.20;100.00
29935;BME280;19905;53.370;-6.314;2023-08-20T00:35:02;100972.00;;;16.07;100.00
29935;BME280;19905;53.370;-6.314;2023-08-20T00:37:31;100978.91;;;16.09;100.00
29935;BME280;19905;53.370;-6.314;2023-08-20T00:40:00;100977.09;;;16.00;100.00
29935;BME280;19905;53.370;-6.314;2023-08-20T00:42:31;100981.59;;;15.99;100.00
29935;BME280;19905;53.370;-6.314;2023-08-20T00:45:00;100981.59;;;15.99;100.00
29935;BME280;19905;53.370;-6.314;2023-08-20T00:47:33;100983.56;;;15.97;100.00
29935;BME280;19905;53.370;-6.314;2023-08-20T00:50:05;100983.59;;;15.88;100.00
29935;BME280;19905;53.370;-6.314;2023-08-20T00:52:35;100991.41;;;15.99;100.00
29935;BME280;19905;53.370;-6.314;2023-08-20T00:55:08;100996.31;;;15.94;100.00
29935;BME280;19905;53.370;-6.314;2023-08-20T00:57:39;100993.81;;;15.92;100.00
29935;BME280;19905;53.370;-6.314;2023-08-20T01:00:10;101007.72;;;15.86;100.00
29935;BME280;19905;53.370;-6.314;2023-08-20T01:02:40;100993.81;;;15.92;100.00
29935;BME280;19905;53.370;-6.314;2023-08-20T01:05:13;101011.38;;;15.85;100.00
29935;BME280;19905;53.370;-6.314;2023-08-20T01:07:53;101022.56;;;15.79;100.00
29935;BME280;19905;53.370;-6.314;2023-08-20T01:10:31;101016.81;;;15.84;100.00
29935;BME280;19905;53.370;-6.314;2023-08-20T01:13:02;101019.50;;;15.74;100.00
29935;BME280;19905;53.370;-6.314;2023-08-20T01:15:31;101018.94;;;15.70;100.00
29935;BME280;19905;53.370;-6.314;2023-08-20T01:18:01;101022.16;;;15.74;100.00
29935;BME280;19905;53.370;-6.314;2023-08-20T01:20:35;101020.50;;;15.73;100.00
29935;BME280;19905;53.370;-6.314;2023-08-20T01:23:49;101023.84;;;15.75;100.00
29935;BME280;19905;53.370;-6.314;2023-08-20T01:26:35;101018.09;;;15.70;100.00
29935;BME280;19905;53.370;-6.314;2023-08-20T01:29:10;101015.84;;;15.75;100.00
29935;BME280;19905;53.370;-6.314;2023-08-20T01:31:40;101014.34;;;15.72;100.00
29935;BME280;19905;53.370;-6.314;2023-08-20T01:34:08;101020.94;;;15.68;100.00
29935;BME280;19905;53.370;-6.314;2023-08-20T01:36:38;101029.75;;;15.69;100.00
29935;BME280;19905;53.370;-6.314;2023-08-20T01:39:06;101027.75;;;15.61;100.00
29935;BME280;19905;53.370;-6.314;2023-08-20T01:41:35;101036.16;;;15.57;100.00
29935;BME280;19905;53.370;-6.314;2023-08-20T01:44:04;101028.47;;;15.54;100.00
29935;BME280;19905;53.370;-6.314;2023-08-20T01:46:34;101037.44;;;15.52;100.00
29935;BME280;19905;53.370;-6.314;2023-08-20T01:49:04;101029.44;;;15.52;100.00
29935;BME280;19905;53.370;-6.314;2023-08-20T01:51:32;101033.09;;;15.51;100.00
29935;BME280;19905;53.370;-6.314;2023-08-20T01:54:00;101036.19;;;15.47;100.00
29935;BME280;19905;53.370;-6.314;2023-08-20T01:56:29;101024.97;;;15.43;100.00
29935;BME280;19905;53.370;-6.314;2023-08-20T01:58:57;101027.63;;;15.53;100.00
29935;BME280;19905;53.370;-6.314;2023-08-20T02:01:26;101036.47;;;15.63;100.00
29935;BME280;19905;53.370;-6.314;2023-08-20T02:03:56;101043.31;;;15.56;100.00
29935;BME280;19905;53.370;-6.314;2023-08-20T02:06:24;101047.13;;;15.54;100.00
29935;BME280;19905;53.370;-6.314;2023-08-20T02:08:55;101048.66;;;15.46;100.00
29935;BME280;19905;53.370;-6.314;2023-08-20T02:11:24;101051.59;;;15.43;100.00
29935;BME280;19905;53.370;-6.314;2023-08-20T02:13:52;101063.94;;;15.44;100.00
29935;BME280;19905;53.370;-6.314;2023-08-20T02:16:22;101067.13;;;15.38;100.00
29935;BME280;19905;53.370;-6.314;2023-08-20T02:18:50;101058.72;;;15.33;100.00
29935;BME280;19905;53.370;-6.314;2023-08-20T02:21:22;101062.22;;;15.34;100.00
29935;BME280;19905;53.370;-6.314;2023-08-20T02:23:50;101068.28;;;15.36;100.00
29935;BME280;19905;53.370;-6.314;2023-08-20T02:26:19;101071.63;;;15.28;100.00
29935;BME280;19905;53.370;-6.314;2023-08-20T02:28:47;101069.22;;;15.25;100.00
29935;BME280;19905;53.370;-6.314;2023-08-20T02:31:16;101068.38;;;15.24;100.00
29935;BME280;19905;53.370;-6.314;2023-08-20T02:33:44;101084.78;;;15.30;100.00
29935;BME280;19905;53.370;-6.314;2023-08-20T02:36:14;101082.84;;;15.22;100.00
29935;BME280;19905;53.370;-6.314;2023-08-20T02:38:46;101085.75;;;15.19;100.00
29935;BME280;19905;53.370;-6.314;2023-08-20T02:41:21;101094.00;;;15.16;100.00
29935;BME280;19905;53.370;-6.314;2023-08-20T02:43:55;101088.41;;;15.19;100.00
29935;BME280;19905;53.370;-6.314;2023-08-20T02:46:24;101089.53;;;15.16;100.00
29935;BME280;19905;53.370;-6.314;2023-08-20T02:48:53;101094.72;;;15.18;100.00
29935;BME280;19905;53.370;-6.314;2023-08-20T02:51:21;101093.75;;;15.19;100.00
29935;BME280;19905;53.370;-6.314;2023-08-20T02:53:51;101088.16;;;15.22;100.00
29935;BME280;19905;53.370;-6.314;2023-08-20T02:56:20;101088.28;;;15.20;100.00
29935;BME280;19905;53.370;-6.314;2023-08-20T02:58:49;101088.41;;;15.19;100.00
29935;BME280;19905;53.370;-6.314;2023-08-20T03:01:19;101088.69;;;15.25;100.00
29935;BME280;19905;53.370;-6.314;2023-08-20T03:03:49;101086.44;;;15.21;100.00
29935;BME280;19905;53.370;-6.314;2023-08-20T03:06:19;101089.53;;;15.16;100.00
29935;BME280;19905;53.370;-6.314;2023-08-20T03:08:48;101090.41;;;15.17;100.00
29935;BME280;19905;53.370;-6.314;2023-08-20T03:11:18;101097.25;;;15.19;100.00
29935;BME280;19905;53.370;-6.314;2023-08-20T03:13:47;101092.91;;;15.18;100.00
29935;BME280;19905;53.370;-6.314;2023-08-20T03:16:17;101098.22;;;15.18;100.00
29935;BME280;19905;53.370;-6.314;2023-08-20T03:18:45;101095.41;;;15.20;100.00
29935;BME280;19905;53.370;-6.314;2023-08-20T03:21:14;101093.75;;;15.19;100.00
29935;BME280;19905;53.370;-6.314;2023-08-20T03:23:43;101093.91;;;15.27;100.00
29935;BME280;19905;53.370;-6.314;2023-08-20T03:26:13;101093.31;;;15.23;100.00
29935;BME280;19905;53.370;-6.314;2023-08-20T03:28:44;101091.50;;;15.24;100.00
29935;BME280;19905;53.370;-6.314;2023-08-20T03:31:12;101097.81;;;15.23;100.00
29935;BME280;19905;53.370;-6.314;2023-08-20T03:33:41;101096.13;;;15.22;100.00
29935;BME280;19905;53.370;-6.314;2023-08-20T03:36:09;101098.50;;;15.25;100.00
29935;BME280;19905;53.370;-6.314;2023-08-20T03:38:38;101093.91;;;15.27;100.00
29935;BME280;19905;53.370;-6.314;2023-08-20T03:41:07;101097.53;;;15.26;100.00
29935;BME280;19905;53.370;-6.314;2023-08-20T03:43:36;101102.47;;;15.31;100.00
29935;BME280;19905;53.370;-6.314;2023-08-20T03:46:06;101102.16;;;15.34;100.00
29935;BME280;19905;53.370;-6.314;2023-08-20T03:48:36;101091.50;;;15.34;100.00
29935;BME280;19905;53.370;-6.314;2023-08-20T03:51:06;101106.22;;;15.38;100.00
29935;BME280;19905;53.370;-6.314;2023-08-20T03:53:34;101101.22;;;15.44;100.00
29935;BME280;19905;53.370;-6.314;2023-08-20T03:56:04;101096.41;;;15.38;100.00
29935;BME280;19905;53.370;-6.314;2023-08-20T03:58:32;101099.09;;;15.38;100.00
29935;BME280;19905;53.370;-6.314;2023-08-20T04:01:02;101104.41;;;15.38;100.00
29935;BME280;19905;53.370;-6.314;2023-08-20T04:03:32;101097.81;;;15.42;100.00
29935;BME280;19905;53.370;-6.314;2023-08-20T04:06:01;101105.53;;;15.45;100.00
29935;BME280;19905;53.370;-6.314;2023-08-20T04:08:29;101097.84;;;15.52;100.00
29935;BME280;19905;53.370;-6.314;2023-08-20T04:10:59;101109.88;;;15.46;100.00
29935;BME280;19905;53.370;-6.314;2023-08-20T04:13:28;101112.97;;;15.42;100.00
29935;BME280;19905;53.370;-6.314;2023-08-20T04:15:58;101115.34;;;15.45;100.00
29935;BME280;19905;53.370;-6.314;2023-08-20T04:18:27;101114.09;;;15.49;100.00
29935;BME280;19905;53.370;-6.314;2023-08-20T04:20:58;101119.28;;;15.50;100.00
29935;BME280;19905;53.370;-6.314;2023-08-20T04:23:27;101115.06;;;15.48;100.00
29935;BME280;19905;53.370;-6.314;2023-08-20T04:25:58;101124.59;;;15.50;100.00
29935;BME280;19905;53.370;-6.314;2023-08-20T04:28:26;101119.44;;;15.59;100.00
29935;BME280;19905;53.370;-6.314;2023-08-20T04:30:55;101114.22;;;15.57;100.00
29935;BME280;19905;53.370;-6.314;2023-08-20T04:33:26;101108.78;;;15.59;100.00
29935;BME280;19905;53.370;-6.314;2023-08-20T04:35:55;101117.06;;;15.65;100.00
29935;BME280;19905;53.370;-6.314;2023-08-20T04:38:27;101109.91;;;15.66;100.00
29935;BME280;19905;53.370;-6.314;2023-08-20T04:40:56;101115.50;;;15.63;100.00
29935;BME280;19905;53.370;-6.314;2023-08-20T04:43:25;101115.06;;;15.58;100.00
29935;BME280;19905;53.370;-6.314;2023-08-20T04:45:54;101120.13;;;15.61;100.00
29935;BME280;19905;53.370;-6.314;2023-08-20T04:48:23;101122.94;;;15.59;100.00
29935;BME280;19905;53.370;-6.314;2023-08-20T04:50:53;101124.59;;;15.60;100.00
29935;BME280;19905;53.370;-6.314;2023-08-20T04:53:23;101126.03;;;15.64;100.00
29935;BME280;19905;53.370;-6.314;2023-08-20T04:55:53;101123.13;;;15.67;100.00
29935;BME280;19905;53.370;-6.314;2023-08-20T04:58:22;101121.56;;;15.65;100.00
29935;BME280;19905;53.370;-6.314;2023-08-20T05:00:54;101122.78;;;15.61;100.00
29935;BME280;19905;53.370;-6.314;2023-08-20T05:03:23;101123.19;;;15.56;100.00
29935;BME280;19905;53.370;-6.314;2023-08-20T05:05:51;101129.94;;;15.50;100.00
29935;BME280;19905;53.370;-6.314;2023-08-20T05:08:20;101128.78;;;15.53;100.00
29935;BME280;19905;53.370;-6.314;2023-08-20T05:10:50;101125.28;;;15.52;100.00
29935;BME280;19905;53.370;-6.314;2023-08-20T05:13:20;101130.59;;;15.43;100.00
29935;BME280;19905;53.370;-6.314;2023-08-20T05:15:51;101134.41;;;15.40;100.00
29935;BME280;19905;53.370;-6.314;2023-08-20T05:18:20;101137.91;;;15.41;100.00
29935;BME280;19905;53.370;-6.314;2023-08-20T05:20:50;101141.66;;;15.38;100.00
29935;BME280;19905;53.370;-6.314;2023-08-20T05:23:19;101141.66;;;15.38;100.00
29935;BME280;19905;53.370;-6.314;2023-08-20T05:25:48;101143.75;;;15.35;100.00
29935;BME280;19905;53.370;-6.314;2023-08-20T05:28:17;101155.28;;;15.35;100.00
29935;BME280;19905;53.370;-6.314;2023-08-20T05:30:54;101163.97;;;15.37;100.00
29935;BME280;19905;53.370;-6.314;2023-08-20T05:33:24;101163.66;;;15.31;100.00
29935;BME280;19905;53.370;-6.314;2023-08-20T05:35:53;101158.47;;;15.29;100.00
29935;BME280;19905;53.370;-6.314;2023-08-20T05:38:22;101164.50;;;15.31;100.00
29935;BME280;19905;53.370;-6.314;2023-08-20T05:40:51;101171.25;;;15.35;100.00
29935;BME280;19905;53.370;-6.314;2023-08-20T05:43:20;101176.84;;;15.32;100.00
29935;BME280;19905;53.370;-6.314;2023-08-20T05:45:48;101160.03;;;15.32;100.00
29935;BME280;19905;53.370;-6.314;2023-08-20T05:48:20;101167.59;;;15.36;100.00
29935;BME280;19905;53.370;-6.314;2023-08-20T05:50:48;101160.03;;;15.41;100.00
29935;BME280;19905;53.370;-6.314;2023-08-20T05:53:18;101168.59;;;15.45;100.00
29935;BME280;19905;53.370;-6.314;2023-08-20T05:55:46;101161.16;;;15.48;100.00
29935;BME280;19905;53.370;-6.314;2023-08-20T05:58:16;101169.88;;;15.50;100.00
29935;BME280;19905;53.370;-6.314;2023-08-20T06:00:45;101155.56;;;15.51;100.00
29935;BME280;19905;53.370;-6.314;2023-08-20T06:03:15;101172.69;;;15.59;100.00
29935;BME280;19905;53.370;-6.314;2023-08-20T06:05:45;101169.34;;;15.66;100.00
29935;BME280;19905;53.370;-6.314;2023-08-20T06:08:13;101171.47;;;15.72;100.00
29935;BME280;19905;53.370;-6.314;2023-08-20T06:10:43;101175.53;;;15.77;100.00
29935;BME280;19905;53.370;-6.314;2023-08-20T06:13:12;101177.06;;;15.89;100.00
29935;BME280;19905;53.370;-6.314;2023-08-20T06:15:41;101175.81;;;15.93;100.00
29935;BME280;19905;53.370;-6.314;2023-08-20T06:18:11;101173.72;;;15.96;100.00
29935;BME280;19905;53.370;-6.314;2023-08-20T06:20:47;101173.56;;;15.98;100.00
29935;BME280;19905;53.370;-6.314;2023-08-20T06:23:17;101177.06;;;15.98;100.00
29935;BME280;19905;53.370;-6.314;2023-08-20T06:26:02;101173.28;;;16.01;100.00
29935;BME280;19905;53.370;-6.314;2023-08-20T06:28:31;101170.63;;;16.01;100.00
29935;BME280;19905;53.370;-6.314;2023-08-20T06:30:59;101180.44;;;16.10;100.00
29935;BME280;19905;53.370;-6.314;2023-08-20T06:33:28;101185.06;;;16.18;100.00
29935;BME280;19905;53.370;-6.314;2023-08-20T06:35:59;101181.97;;;16.22;100.00
29935;BME280;19905;53.370;-6.314;2023-08-20T06:38:28;101183.94;;;16.20;100.00
29935;BME280;19905;53.370;-6.314;2023-08-20T06:40:58;101175.50;;;16.25;100.00
29935;BME280;19905;53.370;-6.314;2023-08-20T06:43:29;101178.31;;;16.33;100.00
29935;BME280;19905;53.370;-6.314;2023-08-20T06:46:01;101183.75;;;16.41;100.00
29935;BME280;19905;53.370;-6.314;2023-08-20T06:48:31;101184.88;;;16.39;100.00
29935;BME280;19905;53.370;-6.314;2023-08-20T06:51:11;101188.53;;;16.38;100.00
29935;BME280;19905;53.370;-6.314;2023-08-20T06:53:43;101194.44;;;16.41;100.00
29935;BME280;19905;53.370;-6.314;2023-08-20T06:56:11;101192.84;;;16.48;100.00
29935;BME280;19905;53.370;-6.314;2023-08-20T06:58:42;101196.50;;;16.47;100.00
29935;BME280;19905;53.370;-6.314;2023-08-20T07:01:11;101194.97;;;16.55;100.00
29935;BME280;19905;53.370;-6.314;2023-08-20T07:03:44;101190.31;;;16.57;100.00
29935;BME280;19905;53.370;-6.314;2023-08-20T07:06:16;101189.03;;;16.61;100.00
29935;BME280;19905;53.370;-6.314;2023-08-20T07:08:45;101188.47;;;16.67;100.00
29935;BME280;19905;53.370;-6.314;2023-08-20T07:11:15;101190.72;;;16.62;100.00
29935;BME280;19905;53.370;-6.314;2023-08-20T07:13:43;101189.84;;;16.71;100.00
29935;BME280;19905;53.370;-6.314;2023-08-20T07:16:14;101193.94;;;16.65;100.00
29935;BME280;19905;53.370;-6.314;2023-08-20T07:18:43;101191.69;;;16.70;100.00
29935;BME280;19905;53.370;-6.314;2023-08-20T07:21:12;101189.00;;;16.70;100.00
29935;BME280;19905;53.370;-6.314;2023-08-20T07:23:42;101196.03;;;16.81;100.00
29935;BME280;19905;53.370;-6.314;2023-08-20T07:26:12;101203.16;;;16.90;100.00
29935;BME280;19905;53.370;-6.314;2023-08-20T07:28:41;101202.88;;;16.93;100.00
29935;BME280;19905;53.370;-6.314;2023-08-20T07:33:55;101201.53;;;17.07;100.00
29935;BME280;19905;53.370;-6.314;2023-08-20T07:36:30;101212.78;;;17.11;100.00
29935;BME280;19905;53.370;-6.314;2023-08-20T07:39:01;101196.59;;;17.12;100.00
29935;BME280;19905;53.370;-6.314;2023-08-20T07:41:30;101206.41;;;17.21;100.00
29935;BME280;19905;53.370;-6.314;2023-08-20T07:43:59;101200.38;;;17.19;100.00
29935;BME280;19905;53.370;-6.314;2023-08-20T07:46:27;101201.88;;;17.22;100.00
29935;BME280;19905;53.370;-6.314;2023-08-20T07:48:59;101200.78;;;17.24;100.00
29935;BME280;19905;53.370;-6.314;2023-08-20T07:51:29;101203.66;;;17.31;100.00
29935;BME280;19905;53.370;-6.314;2023-08-20T07:53:57;101207.03;;;17.33;100.00
29935;BME280;19905;53.370;-6.314;2023-08-20T07:56:30;101206.06;;;17.34;100.00
29935;BME280;19905;53.370;-6.314;2023-08-20T07:58:58;101201.38;;;17.36;100.00
29935;BME280;19905;53.370;-6.314;2023-08-20T08:01:29;101200.09;;;17.40;100.00
29935;BME280;19905;53.370;-6.314;2023-08-20T08:03:58;101207.66;;;17.45;100.00
29935;BME280;19905;53.370;-6.314;2023-08-20T08:06:27;101206.78;;;17.54;100.00
29935;BME280;19905;53.370;-6.314;2023-08-20T08:08:55;101200.00;;;17.60;100.00
29935;BME280;19905;53.370;-6.314;2023-08-20T08:11:25;101202.69;;;17.60;100.00
29935;BME280;19905;53.370;-6.314;2023-08-20T08:13:55;101199.00;;;17.61;100.00
29935;BME280;19905;53.370;-6.314;2023-08-20T08:16:23;101203.34;;;17.62;100.00
29935;BME280;19905;53.370;-6.314;2023-08-20T08:18:52;101201.28;;;17.56;100.00
29935;BME280;19905;53.370;-6.314;2023-08-20T08:21:20;101205.03;;;17.63;100.00
29935;BME280;19905;53.370;-6.314;2023-08-20T08:23:49;101194.34;;;17.63;100.00
29935;BME280;19905;53.370;-6.314;2023-08-20T08:26:18;101199.31;;;17.58;100.00
29935;BME280;19905;53.370;-6.314;2023-08-20T08:28:47;101196.63;;;17.58;100.00
29935;BME280;19905;53.370;-6.314;2023-08-20T08:31:17;101210.75;;;17.68;100.00
29935;BME280;19905;53.370;-6.314;2023-08-20T08:33:46;101217.09;;;17.67;100.00
29935;BME280;19905;53.370;-6.314;2023-08-20T08:36:16;101227.50;;;17.70;100.00
29935;BME280;19905;53.370;-6.314;2023-08-20T08:38:45;101207.25;;;17.67;100.00
29935;BME280;19905;53.370;-6.314;2023-08-20T08:41:14;101211.13;;;17.73;100.00
29935;BME280;19905;53.370;-6.314;2023-08-20T08:43:43;101210.22;;;17.74;100.00
29935;BME280;19905;53.370;-6.314;2023-08-20T08:46:15;101207.75;;;17.81;100.00
29935;BME280;19905;53.370;-6.314;2023-08-20T08:48:46;101211.72;;;17.76;100.00
29935;BME280;19905;53.370;-6.314;2023-08-20T08:51:16;101212.94;;;17.82;100.00
29935;BME280;19905;53.370;-6.314;2023-08-20T08:53:46;101209.66;;;17.88;100.00
29935;BME280;19905;53.370;-6.314;2023-08-20T08:56:16;101204.72;;;17.93;100.00
29935;BME280;19905;53.370;-6.314;2023-08-20T08:58:45;101202.78;;;18.03;100.00
29935;BME280;19905;53.370;-6.314;2023-08-20T09:01:14;101204.69;;;18.11;100.00
29935;BME280;19905;53.370;-6.314;2023-08-20T09:03:43;101210.41;;;18.16;100.00
29935;BME280;19905;53.370;-6.314;2023-08-20T09:06:12;101197.06;;;18.16;100.00
29935;BME280;19905;53.370;-6.314;2023-08-20T09:08:43;101202.59;;;18.23;100.00
29935;BME280;19905;53.370;-6.314;2023-08-20T09:11:12;101219.25;;;18.35;100.00
29935;BME280;19905;53.370;-6.314;2023-08-20T09:13:42;101214.28;;;18.40;100.00
29935;BME280;19905;53.370;-6.314;2023-08-20T09:16:12;101205.88;;;18.35;100.00
29935;BME280;19905;53.370;-6.314;2023-08-20T09:18:44;101211.91;;;18.37;100.00
29935;BME280;19905;53.370;-6.314;2023-08-20T09:21:15;101211.72;;;18.30;100.00
29935;BME280;19905;53.370;-6.314;2023-08-20T09:23:45;101204.06;;;18.35;100.00
29935;BME280;19905;53.370;-6.314;2023-08-20T09:26:14;101201.75;;;18.40;100.00
29935;BME280;19905;53.370;-6.314;2023-08-20T09:28:45;101201.53;;;18.60;100.00
29935;BME280;19905;53.370;-6.314;2023-08-20T09:31:15;101198.84;;;18.60;100.00
29935;BME280;19905;53.370;-6.314;2023-08-20T09:33:51;101211.19;;;18.70;100.00
29935;BME280;19905;53.370;-6.314;2023-08-20T09:36:31;101202.56;;;18.85;100.00
29935;BME280;19905;53.370;-6.314;2023-08-20T09:39:01;101202.13;;;18.97;100.00
29935;BME280;19905;53.370;-6.314;2023-08-20T09:41:30;101196.13;;;19.03;100.00
29935;BME280;19905;53.370;-6.314;2023-08-20T09:43:59;101186.78;;;19.08;100.00
29935;BME280;19905;53.370;-6.314;2023-08-20T09:46:31;101182.44;;;19.15;100.00
29935;BME280;19905;53.370;-6.314;2023-08-20T09:49:01;101193.72;;;19.26;100.00
29935;BME280;19905;53.370;-6.314;2023-08-20T09:51:36;101178.78;;;19.16;100.00
29935;BME280;19905;53.370;-6.314;2023-08-20T09:54:13;101184.31;;;19.22;100.00
29935;BME280;19905;53.370;-6.314;2023-08-20T09:56:46;101192.38;;;19.22;100.00
29935;BME280;19905;53.370;-6.314;2023-08-20T09:59:19;101187.50;;;19.18;100.00
29935;BME280;19905;53.370;-6.314;2023-08-20T10:01:50;101203.28;;;19.29;100.00
29935;BME280;19905;53.370;-6.314;2023-08-20T10:04:23;101196.25;;;19.36;100.00
29935;BME280;19905;53.370;-6.314;2023-08-20T10:06:54;101186.50;;;19.61;100.00
29935;BME280;19905;53.370;-6.314;2023-08-20T10:09:26;101174.28;;;19.75;100.00
29935;BME280;19905;53.370;-6.314;2023-08-20T10:11:55;101188.50;;;19.84;100.00
29935;BME280;19905;53.370;-6.314;2023-08-20T10:14:24;101185.19;;;19.98;100.00
29935;BME280;19905;53.370;-6.314;2023-08-20T10:16:53;101194.06;;;19.90;100.00
29935;BME280;19905;53.370;-6.314;2023-08-20T10:19:22;101195.94;;;19.98;100.00
29935;BME280;19905;53.370;-6.314;2023-08-20T10:21:53;101186.19;;;20.05;100.00
29935;BME280;19905;53.370;-6.314;2023-08-20T10:24:24;101190.56;;;19.90;100.00
29935;BME280;19905;53.370;-6.314;2023-08-20T10:27:07;101194.75;;;19.84;100.00
29935;BME280;19905;53.370;-6.314;2023-08-20T10:29:40;101203.59;;;19.93;100.00
29935;BME280;19905;53.370;-6.314;2023-08-20T10:32:10;101211.66;;;19.93;100.00
29935;BME280;19905;53.370;-6.314;2023-08-20T10:34:47;101196.75;;;19.98;100.00
29935;BME280;19905;53.370;-6.314;2023-08-20T10:37:27;101186.34;;;20.20;100.00
29935;BME280;19905;53.370;-6.314;2023-08-20T10:39:57;101200.59;;;20.45;100.00
29935;BME280;19905;53.370;-6.314;2023-08-20T10:42:26;101197.59;;;20.31;100.00
29935;BME280;19905;53.370;-6.314;2023-08-20T10:44:59;101204.28;;;20.27;100.00
29935;BME280;19905;53.370;-6.314;2023-08-20T10:47:43;101203.63;;;20.09;100.00
29935;BME280;19905;53.370;-6.314;2023-08-20T10:50:15;101206.47;;;20.16;100.00
29935;BME280;19905;53.370;-6.314;2023-08-20T10:52:55;101195.72;;;19.91;100.00
29935;BME280;19905;53.370;-6.314;2023-08-20T10:55:25;101198.91;;;20.11;100.00
29935;BME280;19905;53.370;-6.314;2023-08-20T10:57:57;101211.84;;;20.24;100.00
29935;BME280;19905;53.370;-6.314;2023-08-20T11:00:27;101205.28;;;20.43;100.00
29935;BME280;19905;53.370;-6.314;2023-08-20T11:02:58;101216.19;;;20.33;100.00
29935;BME280;19905;53.370;-6.314;2023-08-20T11:05:27;101192.72;;;20.35;100.00
29935;BME280;19905;53.370;-6.314;2023-08-20T11:07:57;101208.47;;;20.38;100.00
29935;BME280;19905;53.370;-6.314;2023-08-20T11:10:26;101197.75;;;20.54;100.00
29935;BME280;19905;53.370;-6.314;2023-08-20T11:12:55;101203.63;;;20.58;100.00
29935;BME280;19905;53.370;-6.314;2023-08-20T11:15:24;101211.81;;;20.65;100.00
29935;BME280;19905;53.370;-6.314;2023-08-20T11:17:53;101208.81;;;20.76;100.00
29935;BME280;19905;53.370;-6.314;2023-08-20T11:20:22;101185.91;;;20.88;100.00
29935;BME280;19905;53.370;-6.314;2023-08-20T11:22:51;101205.53;;;20.97;100.00
29935;BME280;19905;53.370;-6.314;2023-08-20T11:25:22;101193.13;;;20.96;100.00
29935;BME280;19905;53.370;-6.314;2023-08-20T11:27:50;101185.16;;;21.11;100.00
29935;BME280;19905;53.370;-6.314;2023-08-20T11:30:19;101191.31;;;21.36;100.00
29935;BME280;19905;53.370;-6.314;2023-08-20T11:32:48;101191.97;;;21.29;100.00
29935;BME280;19905;53.370;-6.314;2023-08-20T11:35:20;101176.84;;;21.68;100.00
29935;BME280;19905;53.370;-6.314;2023-08-20T11:37:48;101195.66;;;21.68;100.00
29935;BME280;19905;53.370;-6.314;2023-08-20T11:40:20;101182.88;;;21.70;100.00
29935;BME280;19905;53.370;-6.314;2023-08-20T11:42:50;101193.66;;;21.62;100.00
29935;BME280;19905;53.370;-6.314;2023-08-20T11:45:18;101202.72;;;21.69;100.00
29935;BME280;19905;53.370;-6.314;2023-08-20T11:47:47;101184.19;;;21.74;100.00
29935;BME280;19905;53.370;-6.314;2023-08-20T11:50:20;101202.59;;;22.31;100.00
29935;BME280;19905;53.370;-6.314;2023-08-20T11:52:48;101202.78;;;21.52;100.00
29935;BME280;19905;53.370;-6.314;2023-08-20T11:55:22;101198.53;;;21.27;100.00
29935;BME280;19905;53.370;-6.314;2023-08-20T11:57:53;101197.44;;;21.05;100.00
29935;BME280;19905;53.370;-6.314;2023-08-20T12:00:26;101204.28;;;21.16;100.00
29935;BME280;19905;53.370;-6.314;2023-08-20T12:02:55;101203.59;;;21.22;100.00
29935;BME280;19905;53.370;-6.314;2023-08-20T12:05:27;101194.28;;;20.93;100.00
29935;BME280;19905;53.370;-6.314;2023-08-20T12:07:59;101207.22;;;21.45;100.00
29935;BME280;19905;53.370;-6.314;2023-08-20T12:10:30;101194.84;;;21.67;100.00
29935;BME280;19905;53.370;-6.314;2023-08-20T12:13:02;101188.66;;;22.04;100.00
29935;BME280;19905;53.370;-6.314;2023-08-20T12:15:31;101205.53;;;22.21;100.00
29935;BME280;19905;53.370;-6.314;2023-08-20T12:18:00;101190.84;;;21.86;100.00
29935;BME280;19905;53.370;-6.314;2023-08-20T12:20:33;101186.97;;;21.80;100.00
29935;BME280;19905;53.370;-6.314;2023-08-20T12:23:04;101188.66;;;22.04;100.00
29935;BME280;19905;53.370;-6.314;2023-08-20T12:25:35;101181.44;;;22.28;100.00
29935;BME280;19905;53.370;-6.314;2023-08-20T12:28:09;101200.75;;;22.08;100.00
29935;BME280;19905;53.370;-6.314;2023-08-20T12:30:37;101210.19;;;21.81;100.00
29935;BME280;19905;53.370;-6.314;2023-08-20T12:33:07;101199.41;;;21.59;100.00
29935;BME280;19905;53.370;-6.314;2023-08-20T12:35:39;101214.09;;;22.25;100.00
29935;BME280;19905;53.370;-6.314;2023-08-20T12:38:07;101198.13;;;21.77;100.00
29935;BME280;19905;53.370;-6.314;2023-08-20T12:40:36;101198.09;;;21.54;100.00
29935;BME280;19905;53.370;-6.314;2023-08-20T12:43:07;101192.00;;;21.83;100.00
29935;BME280;19905;53.370;-6.314;2023-08-20T12:45:36;101198.69;;;22.11;100.00
29935;BME280;19905;53.370;-6.314;2023-08-20T12:48:06;101189.44;;;22.36;100.00
29935;BME280;19905;53.370;-6.314;2023-08-20T12:50:36;101183.53;;;22.70;100.00